Aérodrome :
LOGIN :

S'inscrire | Disclaimer

   EN    FR    IT 

 










Légende :    VFR   VFR Marginal   IFR   IFR Intensif   IFR Très Intensif
Visi : 
Plafond : 
>= 8 km
>= 3000ft
5 à 8 km
1000 à 3000 ft
1500m à 5 km
500 à 1000 ft
800 à 1500m
200 à 500 ft
< 800m
< 200 ft
Symboles :   Orages  Brouillard  Fortes neiges  Fortes précipitations  Vent > 20 kt
SIGMETs :   Divers  Orages  Givrage  Turbulence  Onde Orograph.  Cendres Volcan.






- Altitude de l'aérodrome : 1197 ft
- Code IATA : SPM


ETAD - Spangdahlem Ab

DERNIER METAR :
  • 040156Z AUTO 00000KT 9999 CLR 00/M03 A3016 RMK AO2 SLP216 T10041033 $

METARs EXPIRÉS :
  • 040056Z AUTO 00000KT 9999 CLR 00/M03 A3015 RMK AO2 SLP212 T00031034 $
  • 032356Z AUTO 32003KT 9999 CLR 03/M03 A3015 RMK AO2 SLP211 T00271030 10072 20027 52010 $

TAF TAF ETAD
Valide du 03 à 18h jusqu'au 05 à 00h UTC


031800Z 0318/0424 30009KT 9999 BKN040 600402 QNH3007INS
BECMG 0406/0407 VRB03KT 9999 SCT045 QNH3015INS
BECMG 0412/0413 12009KT 9999 SCT030 QNH3020INS
BECMG 0416/0417 13006KT 9999 FEW030 QNH3022INS
BECMG 0422/0423 09004KT 9999 SKC QNH3023INS TX12/0415Z TN02/0322Z LAST NO AMDS AFT 0319 NEXT 0410



MET'MAP, la Météo Aéronautique d'un coup d'oeil ! - Copyright ORBIFLY Décembre 2007 - Disclaimer

ORBIFLY MET'MAP TEAM :

Programmation & Développement : Alexandra Zaïnal
Sur une idée originale de : Baudouin d'Aumeries
Assistance à la programmation : Marc-Olivier Méhu
Soutien technique & logistique : Manuel Goepfert

Contact : metmap@orbifly.com




SOURCES & CREDITS :

   NOAA